createdAt,value
2019-02-20T00:00:30.039Z,21.73
2019-02-20T00:03:07.047Z,22.37
2019-02-20T00:05:44.523Z,22.37
2019-02-20T00:08:19.458Z,19.25
2019-02-20T00:10:53.681Z,21.30
2019-02-20T00:13:28.337Z,27.13
2019-02-20T00:16:03.008Z,25.68
2019-02-20T00:18:37.618Z,25.23
2019-02-20T00:21:11.950Z,22.27
2019-02-20T00:23:46.796Z,23.62
2019-02-20T00:26:21.432Z,24.02
2019-02-20T00:31:30.593Z,25.45
2019-02-20T00:39:12.670Z,26.27
2019-02-20T00:44:47.420Z,25.20
2019-02-20T00:50:08.335Z,28.07
2019-02-20T00:52:49.792Z,26.35
2019-02-20T00:55:24.126Z,23.62
2019-02-20T00:57:58.974Z,25.27
2019-02-20T01:00:33.315Z,23.80
2019-02-20T01:03:07.796Z,26.40
2019-02-20T01:05:42.488Z,28.87
2019-02-20T01:08:16.988Z,28.10
2019-02-20T01:10:51.645Z,30.12
2019-02-20T01:15:59.681Z,32.70
2019-02-20T01:18:34.049Z,33.10
2019-02-20T01:21:08.697Z,30.20
2019-02-20T01:23:43.057Z,30.20
2019-02-20T01:26:17.669Z,32.00
2019-02-20T01:28:52.039Z,38.05
2019-02-20T01:31:26.545Z,33.35
2019-02-20T01:34:01.497Z,30.10
2019-02-20T01:36:35.998Z,33.83
2019-02-20T01:39:10.536Z,30.70
2019-02-20T01:41:44.869Z,30.43
2019-02-20T01:44:19.310Z,32.63
2019-02-20T01:46:53.625Z,35.98
2019-02-20T01:52:01.613Z,44.85
2019-02-20T01:57:09.808Z,38.88
2019-02-20T01:59:44.123Z,39.60
2019-02-20T02:02:18.769Z,39.20
2019-02-20T02:04:53.521Z,38.02
2019-02-20T02:07:27.821Z,34.00
2019-02-20T02:10:02.433Z,33.73
2019-02-20T02:12:37.334Z,35.75
2019-02-20T02:15:19.998Z,35.88
2019-02-20T02:17:48.071Z,31.15
2019-02-20T02:20:22.543Z,33.35
2019-02-20T02:22:56.825Z,32.45
2019-02-20T02:25:31.313Z,35.23
2019-02-20T02:28:05.843Z,32.48
2019-02-20T02:30:40.314Z,36.93
2019-02-20T02:33:14.994Z,30.70
2019-02-20T02:35:49.630Z,32.42
2019-02-20T02:40:57.641Z,41.23
2019-02-20T02:43:32.020Z,41.30
2019-02-20T02:46:06.717Z,41.15
2019-02-20T02:48:41.048Z,38.85
2019-02-20T02:51:15.687Z,40.60
2019-02-20T02:56:23.640Z,36.40
2019-02-20T02:58:57.715Z,37.95
2019-02-20T03:01:31.880Z,37.45
2019-02-20T03:04:06.474Z,36.42
2019-02-20T03:06:41.088Z,33.73
2019-02-20T03:09:15.801Z,32.45
2019-02-20T03:11:50.316Z,32.80
2019-02-20T03:14:24.664Z,35.48
2019-02-20T03:19:33.004Z,34.70
2019-02-20T03:22:07.409Z,33.38
2019-02-20T03:24:41.835Z,33.73
2019-02-20T03:27:16.075Z,37.05
2019-02-20T03:29:50.545Z,37.93
2019-02-20T03:32:25.325Z,38.42
2019-02-20T03:34:59.828Z,36.25
2019-02-20T03:37:34.516Z,33.67
2019-02-20T03:40:08.896Z,34.10
2019-02-20T03:42:43.321Z,35.73
2019-02-20T03:45:17.783Z,30.25
2019-02-20T03:47:52.511Z,31.85
2019-02-20T03:50:26.854Z,33.08
2019-02-20T03:53:01.322Z,34.20
2019-02-20T03:55:35.980Z,30.85
2019-02-20T03:58:10.316Z,32.80
2019-02-20T04:00:44.606Z,30.48
2019-02-20T04:03:19.113Z,31.10
2019-02-20T04:05:53.667Z,32.67
2019-02-20T04:11:01.598Z,35.45
2019-02-20T04:16:09.641Z,37.15
2019-02-20T04:21:18.776Z,37.33
2019-02-20T04:24:01.982Z,37.80
2019-02-20T04:26:32.951Z,41.08
2019-02-20T04:29:07.323Z,39.20
2019-02-20T04:31:41.610Z,40.12
2019-02-20T04:36:49.661Z,36.23
2019-02-20T04:41:57.824Z,44.67
2019-02-20T04:44:32.314Z,46.40
2019-02-20T04:47:06.895Z,46.08
2019-02-20T04:49:41.824Z,47.40
2019-02-20T04:52:17.335Z,46.28
2019-02-20T04:54:52.825Z,45.50
2019-02-20T04:57:27.179Z,46.75
2019-02-20T05:00:04.027Z,44.00
2019-02-20T05:02:40.525Z,43.63
2019-02-20T05:05:14.900Z,41.53
2019-02-20T05:07:49.322Z,40.17
2019-02-20T05:10:23.846Z,44.03
2019-02-20T05:12:58.316Z,46.65
2019-02-20T05:15:32.799Z,45.08
2019-02-20T05:18:07.313Z,47.70
2019-02-20T05:20:42.789Z,49.98
2019-02-20T05:23:17.471Z,50.33
2019-02-20T05:25:52.469Z,49.13
2019-02-20T05:31:01.134Z,43.52
2019-02-20T05:33:35.704Z,45.80
2019-02-20T05:36:10.341Z,42.98
2019-02-20T05:38:44.841Z,44.55
2019-02-20T05:41:19.326Z,41.70
2019-02-20T05:43:53.649Z,39.25
2019-02-20T05:46:28.046Z,42.53
2019-02-20T05:49:02.589Z,40.95
2019-02-20T05:51:37.113Z,36.73
2019-02-20T05:54:11.541Z,36.60
2019-02-20T05:56:45.975Z,40.38
2019-02-20T05:59:20.333Z,31.62
2019-02-20T06:01:54.878Z,33.63
2019-02-20T06:04:29.453Z,32.35
2019-02-20T06:07:03.835Z,30.48
2019-02-20T06:09:38.530Z,28.65
2019-02-20T06:12:13.523Z,32.75
2019-02-20T06:14:48.148Z,30.65
2019-02-20T06:17:22.851Z,30.72
2019-02-20T06:19:57.599Z,35.15
2019-02-20T06:27:41.328Z,29.55
2019-02-20T06:30:16.787Z,35.10
2019-02-20T06:32:51.498Z,31.37
2019-02-20T06:35:25.935Z,32.67
2019-02-20T06:38:00.560Z,32.75
2019-02-20T06:43:09.803Z,37.88
2019-02-20T06:45:44.419Z,37.73
2019-02-20T06:48:18.961Z,34.78
2019-02-20T06:50:53.313Z,37.60
2019-02-20T06:53:27.637Z,37.35
2019-02-20T06:58:36.124Z,41.25
2019-02-20T07:01:10.771Z,39.03
2019-02-20T07:03:45.170Z,37.40
2019-02-20T07:07:15.544Z,37.38
2019-02-20T07:14:03.125Z,35.52
2019-02-20T07:17:27.132Z,32.53
2019-02-20T07:21:42.005Z,35.23
2019-02-20T07:25:40.941Z,28.50
2019-02-20T07:29:18.939Z,34.92
2019-02-20T07:31:53.729Z,35.05
2019-02-20T07:34:28.348Z,28.15
2019-02-20T07:37:02.813Z,30.30
2019-02-20T07:39:37.317Z,31.15
2019-02-20T07:42:12.043Z,32.75
2019-02-20T07:44:46.512Z,28.47
2019-02-20T07:47:21.061Z,31.33
2019-02-20T07:49:55.605Z,31.55
2019-02-20T07:55:12.954Z,37.30
2019-02-20T07:57:43.516Z,32.15
2019-02-20T08:00:18.277Z,32.55
2019-02-20T08:02:53.321Z,29.82
2019-02-20T08:05:28.352Z,31.48
2019-02-20T08:08:03.689Z,32.13
2019-02-20T08:13:14.577Z,32.45
2019-02-20T08:18:25.321Z,31.82
2019-02-20T08:21:01.529Z,27.62
2019-02-20T08:23:36.311Z,27.77
2019-02-20T08:26:10.628Z,26.68
2019-02-20T08:31:18.993Z,29.87
2019-02-20T08:33:54.034Z,31.42
2019-02-20T08:36:28.641Z,28.98
2019-02-20T08:41:40.864Z,29.20
2019-02-20T08:44:27.684Z,27.15
2019-02-20T08:49:35.957Z,20.90
2019-02-20T08:52:10.519Z,23.18
2019-02-20T08:54:46.044Z,27.42
2019-02-20T08:57:20.656Z,22.07
2019-02-20T08:59:55.154Z,22.32
2019-02-20T09:02:29.903Z,22.85
2019-02-20T09:05:05.852Z,24.40
2019-02-20T09:07:41.576Z,26.33
2019-02-20T09:12:51.748Z,26.75
2019-02-20T09:15:26.793Z,18.35
2019-02-20T09:18:01.138Z,24.05
2019-02-20T09:20:35.552Z,20.62
2019-02-20T09:25:44.495Z,26.62
2019-02-20T09:30:54.323Z,24.50
2019-02-20T09:33:35.919Z,26.73
2019-02-20T09:36:11.494Z,23.07
2019-02-20T09:38:46.104Z,21.37
2019-02-20T09:41:20.633Z,24.43
2019-02-20T09:43:55.114Z,21.62
2019-02-20T09:46:29.639Z,24.37
2019-02-20T09:49:04.425Z,26.25
2019-02-20T09:51:38.934Z,33.42
2019-02-20T09:54:13.562Z,28.77
2019-02-20T09:59:23.317Z,24.47
2019-02-20T10:01:57.782Z,19.10
2019-02-20T10:04:32.584Z,18.82
2019-02-20T10:12:14.805Z,21.25
2019-02-20T10:14:49.532Z,24.37
2019-02-20T10:17:24.057Z,21.57
2019-02-20T10:19:58.985Z,21.60
2019-02-20T10:22:33.622Z,24.92
2019-02-20T10:25:09.600Z,24.50
2019-02-20T10:27:44.149Z,25.90
2019-02-20T10:30:18.833Z,21.52
2019-02-20T10:32:53.540Z,24.87
2019-02-20T10:38:01.784Z,23.25
2019-02-20T10:40:38.875Z,23.07
2019-02-20T10:43:13.604Z,21.97
2019-02-20T10:48:25.791Z,20.27
2019-02-20T10:51:01.151Z,22.27
2019-02-20T10:53:37.430Z,19.90
2019-02-20T10:56:12.452Z,18.12
2019-02-20T11:01:22.859Z,16.95
2019-02-20T11:03:58.582Z,22.87
2019-02-20T11:06:33.930Z,17.12
2019-02-20T11:09:10.682Z,17.30
2019-02-20T11:11:47.347Z,23.50
2019-02-20T11:14:22.772Z,17.45
2019-02-20T11:16:58.875Z,17.23
2019-02-20T11:19:34.330Z,18.32
2019-02-20T11:22:09.295Z,19.17
2019-02-20T11:24:44.093Z,15.93
2019-02-20T11:27:19.483Z,17.67
2019-02-20T11:29:54.297Z,12.70
2019-02-20T11:32:28.991Z,17.12
2019-02-20T11:35:05.297Z,18.85
2019-02-20T11:37:39.877Z,12.93
2019-02-20T11:40:14.780Z,13.50
2019-02-20T11:42:49.554Z,12.47
2019-02-20T11:47:59.570Z,13.90
2019-02-20T11:53:08.124Z,11.10
2019-02-20T11:55:42.770Z,12.13
2019-02-20T11:58:17.600Z,12.43
2019-02-20T12:03:26.826Z,12.85
2019-02-20T12:06:01.567Z,13.72
2019-02-20T12:08:36.473Z,11.30
2019-02-20T12:11:13.630Z,12.18
2019-02-20T12:16:23.109Z,9.80
2019-02-20T12:18:57.673Z,9.48
2019-02-20T12:21:32.900Z,13.68
2019-02-20T12:24:07.637Z,12.07
2019-02-20T12:26:42.155Z,14.40
2019-02-20T12:29:16.636Z,11.38
2019-02-20T12:34:27.566Z,14.55
2019-02-20T12:37:02.008Z,16.00
2019-02-20T12:39:36.614Z,16.05
2019-02-20T12:42:12.965Z,13.50
2019-02-20T12:44:47.823Z,12.53
2019-02-20T12:47:22.322Z,11.30
2019-02-20T12:49:58.695Z,13.68
2019-02-20T12:52:33.316Z,13.88
2019-02-20T12:55:08.353Z,10.82
2019-02-20T12:57:44.311Z,11.85
2019-02-20T13:00:20.719Z,12.73
2019-02-20T13:02:55.601Z,9.95
2019-02-20T13:05:30.486Z,11.53
2019-02-20T13:08:05.057Z,10.28
2019-02-20T13:10:39.818Z,11.83
2019-02-20T13:13:14.565Z,12.07
2019-02-20T13:18:23.093Z,11.50
2019-02-20T13:20:59.228Z,11.95
2019-02-20T13:23:34.120Z,12.40
2019-02-20T13:26:09.048Z,12.50
2019-02-20T13:28:43.824Z,10.65
2019-02-20T13:31:18.533Z,10.68
2019-02-20T13:33:53.006Z,10.40
2019-02-20T13:36:27.796Z,11.65
2019-02-20T13:39:02.617Z,11.95
2019-02-20T13:41:38.761Z,10.70
2019-02-20T13:44:13.336Z,10.72
2019-02-20T13:46:48.099Z,10.50
2019-02-20T13:49:22.788Z,16.23
2019-02-20T13:51:57.345Z,12.47
2019-02-20T13:54:31.775Z,12.37
2019-02-20T13:57:06.859Z,14.63
2019-02-20T13:59:41.894Z,17.05
2019-02-20T14:02:16.786Z,10.88
2019-02-20T14:04:51.325Z,13.83
2019-02-20T14:07:26.158Z,10.00
2019-02-20T14:10:00.545Z,9.98
2019-02-20T14:15:11.018Z,11.68
2019-02-20T14:17:45.698Z,9.20
2019-02-20T14:20:20.132Z,9.03
2019-02-20T14:22:54.543Z,11.63
2019-02-20T14:25:29.309Z,10.75
2019-02-20T14:28:04.334Z,10.13
2019-02-20T14:30:39.013Z,10.50
2019-02-20T14:33:13.874Z,11.57
2019-02-20T14:35:48.385Z,12.00
2019-02-20T14:38:23.000Z,9.13
2019-02-20T14:40:57.618Z,11.55
2019-02-20T14:43:34.889Z,11.50
2019-02-20T14:46:09.624Z,12.90
2019-02-20T14:51:18.530Z,11.70
2019-02-20T14:53:54.347Z,12.65
2019-02-20T14:56:29.044Z,11.57
2019-02-20T14:59:03.815Z,11.65
2019-02-20T15:01:39.754Z,11.20
2019-02-20T15:04:14.729Z,11.95
2019-02-20T15:06:49.470Z,14.45
2019-02-20T15:09:24.057Z,13.25
2019-02-20T15:11:58.824Z,11.35
2019-02-20T15:14:34.673Z,11.38
2019-02-20T15:17:09.612Z,14.18
2019-02-20T15:22:18.492Z,14.75
2019-02-20T15:24:53.269Z,15.80
2019-02-20T15:27:28.909Z,13.00
2019-02-20T15:30:04.845Z,15.28
2019-02-20T15:32:39.576Z,13.22
2019-02-20T15:35:14.671Z,12.80
2019-02-20T15:42:56.982Z,13.05
2019-02-20T15:45:31.637Z,12.98
2019-02-20T15:48:06.131Z,13.35
2019-02-20T15:50:40.818Z,15.55
2019-02-20T15:53:16.929Z,13.80
2019-02-20T15:55:51.715Z,15.00
2019-02-20T15:58:27.313Z,16.17
2019-02-20T16:01:01.837Z,15.60
2019-02-20T16:03:37.105Z,14.63
2019-02-20T16:06:11.877Z,13.45
2019-02-20T16:08:46.975Z,14.73
2019-02-20T16:11:21.555Z,13.03
2019-02-20T16:13:56.516Z,13.65
2019-02-20T16:19:09.015Z,12.63
2019-02-20T16:21:43.916Z,15.75
2019-02-20T16:30:32.728Z,11.80
2019-02-20T16:33:07.315Z,14.50
2019-02-20T16:35:41.979Z,14.63
2019-02-20T16:38:16.825Z,16.32
2019-02-20T16:40:51.529Z,17.23
2019-02-20T16:48:33.535Z,18.90
2019-02-20T16:51:08.290Z,14.60
2019-02-20T16:53:43.310Z,17.80
2019-02-20T16:56:17.790Z,17.52
2019-02-20T16:58:52.421Z,14.78
2019-02-20T17:01:27.013Z,15.03
2019-02-20T17:04:01.543Z,17.17
2019-02-20T17:06:36.094Z,20.00
2019-02-20T17:09:10.719Z,15.30
2019-02-20T17:11:45.635Z,15.83
2019-02-20T17:14:20.641Z,15.32
2019-02-20T17:19:29.664Z,20.90
2019-02-20T17:22:04.310Z,18.10
2019-02-20T17:24:39.017Z,18.32
2019-02-20T17:27:13.709Z,18.85
2019-02-20T17:29:48.540Z,16.42
2019-02-20T17:34:57.865Z,18.85
2019-02-20T17:37:32.882Z,15.95
2019-02-20T17:40:08.534Z,22.75
2019-02-20T17:42:43.314Z,17.07
2019-02-20T17:45:17.877Z,16.62
2019-02-20T17:47:54.168Z,22.55
2019-02-20T17:50:28.961Z,23.12
2019-02-20T17:53:03.830Z,25.55
2019-02-20T17:55:38.546Z,31.23
2019-02-20T17:58:15.399Z,20.55
2019-02-20T18:03:24.560Z,19.25
2019-02-20T18:08:33.545Z,22.93
2019-02-20T18:11:08.118Z,23.95
2019-02-20T18:13:42.868Z,19.95
2019-02-20T18:18:38.165Z,18.37
2019-02-20T18:21:15.124Z,23.60
2019-02-20T18:23:49.997Z,18.60
2019-02-20T18:26:24.662Z,17.65
2019-02-20T18:28:59.455Z,20.25
2019-02-20T18:31:34.056Z,19.35
2019-02-20T18:34:08.866Z,19.25
2019-02-20T18:36:43.642Z,22.32
2019-02-20T18:39:18.341Z,24.15
2019-02-20T18:41:53.112Z,20.88
2019-02-20T18:44:27.925Z,20.35
2019-02-20T18:47:02.665Z,18.95
2019-02-20T18:49:38.909Z,20.00
2019-02-20T18:52:13.567Z,20.32
2019-02-20T18:54:48.692Z,21.23
2019-02-20T18:57:24.007Z,18.02
2019-02-20T18:59:58.529Z,21.85
2019-02-20T19:02:34.089Z,18.77
2019-02-20T19:05:09.831Z,18.37
2019-02-20T19:07:44.746Z,19.90
2019-02-20T19:10:30.667Z,26.97
2019-02-20T19:13:54.875Z,21.48
2019-02-20T19:18:01.572Z,21.48
2019-02-20T19:24:33.550Z,21.17
2019-02-20T19:28:00.842Z,24.27
2019-02-20T19:31:38.632Z,20.40
2019-02-20T19:38:43.845Z,21.52
2019-02-20T19:42:38.321Z,23.25
2019-02-20T19:46:25.957Z,22.48
2019-02-20T19:50:14.715Z,24.98
2019-02-20T19:54:42.160Z,20.77
2019-02-20T19:58:25.863Z,34.03
2019-02-20T20:02:12.854Z,59.58
2019-02-20T20:05:48.885Z,47.70
2019-02-20T20:09:38.804Z,36.03
2019-02-20T20:13:09.995Z,28.42
2019-02-20T20:16:51.929Z,26.73
2019-02-20T20:20:22.991Z,23.20
2019-02-20T20:23:59.732Z,27.73
2019-02-20T20:27:50.970Z,92.80
2019-02-20T20:31:14.353Z,30.65
2019-02-20T20:35:27.786Z,59.38
2019-02-20T20:39:41.055Z,32.93
2019-02-20T20:43:27.186Z,33.58
2019-02-20T20:46:51.513Z,24.15
2019-02-20T20:50:33.212Z,34.33
2019-02-20T20:54:28.733Z,28.73
2019-02-20T20:58:30.789Z,33.10
2019-02-20T21:02:06.364Z,29.00
2019-02-20T21:05:44.676Z,29.23
2019-02-20T21:09:13.539Z,27.35
2019-02-20T21:12:53.627Z,27.30
2019-02-20T21:16:41.516Z,27.93
2019-02-20T21:20:10.470Z,24.90
2019-02-20T21:24:05.111Z,26.07
2019-02-20T21:27:28.439Z,26.77
2019-02-20T21:31:09.557Z,31.68
2019-02-20T21:38:49.015Z,27.73
2019-02-20T21:42:52.128Z,26.70
2019-02-20T21:46:30.542Z,28.23
2019-02-20T21:49:59.328Z,28.55
2019-02-20T21:54:03.927Z,33.50
2019-02-20T21:57:32.454Z,38.50
2019-02-20T22:01:08.129Z,31.02
2019-02-20T22:05:14.328Z,26.97
2019-02-20T22:09:38.022Z,28.95
2019-02-20T22:13:50.311Z,26.75
2019-02-20T22:17:29.053Z,27.60
2019-02-20T22:20:52.316Z,37.20
2019-02-20T22:24:24.907Z,29.92
2019-02-20T22:28:21.406Z,32.48
2019-02-20T22:32:48.121Z,44.67
2019-02-20T22:36:46.558Z,49.08
2019-02-20T22:40:07.815Z,37.60
2019-02-20T22:43:50.122Z,32.42
2019-02-20T22:47:45.523Z,35.45
2019-02-20T22:51:26.616Z,31.82
2019-02-20T22:55:24.104Z,34.35
2019-02-20T22:59:06.466Z,32.80
2019-02-20T23:03:13.302Z,36.10
2019-02-20T23:07:02.866Z,31.05
2019-02-20T23:10:47.655Z,27.07
2019-02-20T23:14:36.658Z,32.35
2019-02-20T23:19:45.104Z,30.62
2019-02-20T23:22:19.916Z,30.27
2019-02-20T23:24:55.522Z,32.03
2019-02-20T23:27:30.021Z,31.82
2019-02-20T23:30:12.914Z,28.07
2019-02-20T23:32:43.449Z,34.70
2019-02-20T23:35:17.780Z,29.75
2019-02-20T23:37:52.130Z,30.40
2019-02-20T23:40:27.763Z,28.92
2019-02-20T23:43:02.637Z,31.27
2019-02-20T23:50:45.081Z,30.12
2019-02-20T23:53:19.545Z,34.15
2019-02-20T23:55:53.919Z,31.35
2019-02-20T23:58:31.793Z,30.95
